sensor_id;sensor_type;location;lat;lon;timestamp;P1;durP1;ratioP1;P2;durP2;ratioP2
77722;SDS011;66890;42.656;23.394;2023-02-10T00:02:10;8.80;;;4.68;;
77722;SDS011;66890;42.656;23.394;2023-02-10T00:04:42;12.27;;;6.35;;
77722;SDS011;66890;42.656;23.394;2023-02-10T00:07:13;10.93;;;5.55;;
77722;SDS011;66890;42.656;23.394;2023-02-10T00:09:43;9.35;;;4.55;;
77722;SDS011;66890;42.656;23.394;2023-02-10T00:12:14;10.65;;;5.80;;
77722;SDS011;66890;42.656;23.394;2023-02-10T00:14:45;11.95;;;6.22;;
77722;SDS011;66890;42.656;23.394;2023-02-10T00:17:15;11.65;;;6.22;;
77722;SDS011;66890;42.656;23.394;2023-02-10T00:19:48;10.25;;;5.20;;
77722;SDS011;66890;42.656;23.394;2023-02-10T00:22:18;13.35;;;5.82;;
77722;SDS011;66890;42.656;23.394;2023-02-10T00:24:49;11.10;;;4.93;;
77722;SDS011;66890;42.656;23.394;2023-02-10T00:27:19;7.38;;;4.80;;
77722;SDS011;66890;42.656;23.394;2023-02-10T00:29:50;18.25;;;6.25;;
77722;SDS011;66890;42.656;23.394;2023-02-10T00:32:21;13.52;;;5.30;;
77722;SDS011;66890;42.656;23.394;2023-02-10T00:34:53;15.65;;;7.03;;
77722;SDS011;66890;42.656;23.394;2023-02-10T00:37:23;13.77;;;6.35;;
77722;SDS011;66890;42.656;23.394;2023-02-10T00:39:54;14.13;;;5.63;;
77722;SDS011;66890;42.656;23.394;2023-02-10T00:42:25;10.63;;;5.68;;
77722;SDS011;66890;42.656;23.394;2023-02-10T00:44:55;18.35;;;6.80;;
77722;SDS011;66890;42.656;23.394;2023-02-10T00:47:26;11.43;;;6.45;;
77722;SDS011;66890;42.656;23.394;2023-02-10T00:49:58;15.45;;;6.63;;
77722;SDS011;66890;42.656;23.394;2023-02-10T00:52:28;9.98;;;4.63;;
77722;SDS011;66890;42.656;23.394;2023-02-10T00:54:59;13.52;;;6.13;;
77722;SDS011;66890;42.656;23.394;2023-02-10T00:57:29;12.70;;;5.65;;
77722;SDS011;66890;42.656;23.394;2023-02-10T01:00:00;11.48;;;5.35;;
77722;SDS011;66890;42.656;23.394;2023-02-10T01:02:31;8.73;;;5.03;;
77722;SDS011;66890;42.656;23.394;2023-02-10T01:05:03;12.52;;;5.80;;
77722;SDS011;66890;42.656;23.394;2023-02-10T01:07:34;12.50;;;5.95;;
77722;SDS011;66890;42.656;23.394;2023-02-10T01:10:05;9.73;;;4.70;;
77722;SDS011;66890;42.656;23.394;2023-02-10T01:12:35;11.07;;;7.15;;
77722;SDS011;66890;42.656;23.394;2023-02-10T01:15:06;15.32;;;6.00;;
77722;SDS011;66890;42.656;23.394;2023-02-10T01:17:38;10.85;;;5.40;;
77722;SDS011;66890;42.656;23.394;2023-02-10T01:20:10;11.50;;;5.32;;
77722;SDS011;66890;42.656;23.394;2023-02-10T01:22:41;9.80;;;4.97;;
77722;SDS011;66890;42.656;23.394;2023-02-10T01:25:11;7.88;;;5.47;;
77722;SDS011;66890;42.656;23.394;2023-02-10T01:27:42;10.75;;;6.03;;
77722;SDS011;66890;42.656;23.394;2023-02-10T01:30:13;11.95;;;6.43;;
77722;SDS011;66890;42.656;23.394;2023-02-10T01:32:43;12.23;;;5.70;;
77722;SDS011;66890;42.656;23.394;2023-02-10T01:35:15;15.18;;;5.32;;
77722;SDS011;66890;42.656;23.394;2023-02-10T01:37:46;11.00;;;4.65;;
77722;SDS011;66890;42.656;23.394;2023-02-10T01:40:17;12.13;;;5.72;;
77722;SDS011;66890;42.656;23.394;2023-02-10T01:42:47;14.93;;;5.43;;
77722;SDS011;66890;42.656;23.394;2023-02-10T01:45:19;12.88;;;5.95;;
77722;SDS011;66890;42.656;23.394;2023-02-10T01:47:54;11.90;;;5.32;;
77722;SDS011;66890;42.656;23.394;2023-02-10T01:50:28;12.00;;;5.75;;
77722;SDS011;66890;42.656;23.394;2023-02-10T01:53:01;12.73;;;4.57;;
77722;SDS011;66890;42.656;23.394;2023-02-10T01:55:33;13.43;;;5.95;;
77722;SDS011;66890;42.656;23.394;2023-02-10T01:58:06;11.43;;;4.72;;
77722;SDS011;66890;42.656;23.394;2023-02-10T02:00:40;9.48;;;4.22;;
77722;SDS011;66890;42.656;23.394;2023-02-10T02:03:11;9.48;;;4.47;;
77722;SDS011;66890;42.656;23.394;2023-02-10T02:05:44;7.68;;;4.13;;
77722;SDS011;66890;42.656;23.394;2023-02-10T02:08:16;8.05;;;4.60;;
77722;SDS011;66890;42.656;23.394;2023-02-10T02:10:55;15.43;;;5.38;;
77722;SDS011;66890;42.656;23.394;2023-02-10T02:13:40;9.15;;;4.93;;
77722;SDS011;66890;42.656;23.394;2023-02-10T02:16:20;9.40;;;5.18;;
77722;SDS011;66890;42.656;23.394;2023-02-10T02:18:59;10.05;;;5.05;;
77722;SDS011;66890;42.656;23.394;2023-02-10T02:24:52;9.82;;;4.53;;
77722;SDS011;66890;42.656;23.394;2023-02-10T02:30:45;12.55;;;5.32;;
77722;SDS011;66890;42.656;23.394;2023-02-10T02:33:29;8.68;;;4.47;;
77722;SDS011;66890;42.656;23.394;2023-02-10T02:36:04;9.25;;;4.63;;
77722;SDS011;66890;42.656;23.394;2023-02-10T02:38:40;13.77;;;6.25;;
77722;SDS011;66890;42.656;23.394;2023-02-10T02:41:11;16.50;;;6.28;;
77722;SDS011;66890;42.656;23.394;2023-02-10T02:43:42;10.40;;;5.15;;
77722;SDS011;66890;42.656;23.394;2023-02-10T02:46:15;12.45;;;5.97;;
77722;SDS011;66890;42.656;23.394;2023-02-10T02:49:00;14.73;;;6.57;;
77722;SDS011;66890;42.656;23.394;2023-02-10T02:51:40;15.98;;;6.20;;
77722;SDS011;66890;42.656;23.394;2023-02-10T02:54:20;16.40;;;6.55;;
77722;SDS011;66890;42.656;23.394;2023-02-10T02:56:56;14.38;;;7.10;;
77722;SDS011;66890;42.656;23.394;2023-02-10T02:59:32;21.08;;;8.40;;
77722;SDS011;66890;42.656;23.394;2023-02-10T03:02:07;17.27;;;6.68;;
77722;SDS011;66890;42.656;23.394;2023-02-10T03:04:42;12.40;;;7.47;;
77722;SDS011;66890;42.656;23.394;2023-02-10T03:07:13;17.85;;;7.32;;
77722;SDS011;66890;42.656;23.394;2023-02-10T03:09:44;23.58;;;8.57;;
77722;SDS011;66890;42.656;23.394;2023-02-10T03:12:15;26.17;;;8.73;;
77722;SDS011;66890;42.656;23.394;2023-02-10T03:14:46;19.35;;;8.05;;
77722;SDS011;66890;42.656;23.394;2023-02-10T03:17:16;17.30;;;8.25;;
77722;SDS011;66890;42.656;23.394;2023-02-10T03:19:48;17.90;;;8.20;;
77722;SDS011;66890;42.656;23.394;2023-02-10T03:22:19;18.65;;;7.68;;
77722;SDS011;66890;42.656;23.394;2023-02-10T03:24:49;17.50;;;9.30;;
77722;SDS011;66890;42.656;23.394;2023-02-10T03:27:20;12.30;;;7.07;;
77722;SDS011;66890;42.656;23.394;2023-02-10T03:29:51;17.25;;;7.20;;
77722;SDS011;66890;42.656;23.394;2023-02-10T03:32:21;12.70;;;7.35;;
77722;SDS011;66890;42.656;23.394;2023-02-10T03:34:53;17.25;;;7.55;;
77722;SDS011;66890;42.656;23.394;2023-02-10T03:37:24;15.85;;;7.30;;
77722;SDS011;66890;42.656;23.394;2023-02-10T03:39:55;20.83;;;8.15;;
77722;SDS011;66890;42.656;23.394;2023-02-10T03:42:25;17.25;;;7.38;;
77722;SDS011;66890;42.656;23.394;2023-02-10T03:44:56;20.80;;;9.27;;
77722;SDS011;66890;42.656;23.394;2023-02-10T03:47:26;20.98;;;10.05;;
77722;SDS011;66890;42.656;23.394;2023-02-10T03:49:58;16.65;;;7.80;;
77722;SDS011;66890;42.656;23.394;2023-02-10T03:52:29;17.50;;;9.98;;
77722;SDS011;66890;42.656;23.394;2023-02-10T03:54:59;17.98;;;7.90;;
77722;SDS011;66890;42.656;23.394;2023-02-10T03:57:30;16.02;;;7.10;;
77722;SDS011;66890;42.656;23.394;2023-02-10T04:00:01;20.20;;;9.30;;
77722;SDS011;66890;42.656;23.394;2023-02-10T04:02:31;20.38;;;11.43;;
77722;SDS011;66890;42.656;23.394;2023-02-10T04:05:03;26.25;;;12.30;;
77722;SDS011;66890;42.656;23.394;2023-02-10T04:07:35;23.08;;;9.73;;
77722;SDS011;66890;42.656;23.394;2023-02-10T04:10:06;19.95;;;11.27;;
77722;SDS011;66890;42.656;23.394;2023-02-10T04:12:37;26.35;;;10.35;;
77722;SDS011;66890;42.656;23.394;2023-02-10T04:15:08;25.70;;;10.98;;
77722;SDS011;66890;42.656;23.394;2023-02-10T04:17:39;25.23;;;10.30;;
77722;SDS011;66890;42.656;23.394;2023-02-10T04:20:11;19.13;;;9.23;;
77722;SDS011;66890;42.656;23.394;2023-02-10T04:22:42;22.00;;;9.77;;
77722;SDS011;66890;42.656;23.394;2023-02-10T04:25:13;19.48;;;10.23;;
77722;SDS011;66890;42.656;23.394;2023-02-10T04:27:43;17.33;;;8.73;;
77722;SDS011;66890;42.656;23.394;2023-02-10T04:30:14;21.75;;;8.60;;
77722;SDS011;66890;42.656;23.394;2023-02-10T04:32:44;17.70;;;8.32;;
77722;SDS011;66890;42.656;23.394;2023-02-10T04:35:17;24.20;;;11.00;;
77722;SDS011;66890;42.656;23.394;2023-02-10T04:37:47;18.02;;;10.80;;
77722;SDS011;66890;42.656;23.394;2023-02-10T04:40:18;19.67;;;7.85;;
77722;SDS011;66890;42.656;23.394;2023-02-10T04:42:49;37.78;;;16.92;;
77722;SDS011;66890;42.656;23.394;2023-02-10T04:45:19;20.98;;;8.63;;
77722;SDS011;66890;42.656;23.394;2023-02-10T04:47:50;20.98;;;7.53;;
77722;SDS011;66890;42.656;23.394;2023-02-10T04:50:22;14.27;;;8.70;;
77722;SDS011;66890;42.656;23.394;2023-02-10T04:52:52;21.88;;;9.20;;
77722;SDS011;66890;42.656;23.394;2023-02-10T04:55:23;16.10;;;6.10;;
77722;SDS011;66890;42.656;23.394;2023-02-10T04:57:54;13.00;;;6.72;;
77722;SDS011;66890;42.656;23.394;2023-02-10T05:00:24;15.27;;;7.55;;
77722;SDS011;66890;42.656;23.394;2023-02-10T05:02:55;14.65;;;7.22;;
77722;SDS011;66890;42.656;23.394;2023-02-10T05:05:27;9.55;;;5.95;;
77722;SDS011;66890;42.656;23.394;2023-02-10T05:07:57;21.08;;;9.27;;
77722;SDS011;66890;42.656;23.394;2023-02-10T05:10:28;11.80;;;6.47;;
77722;SDS011;66890;42.656;23.394;2023-02-10T05:12:59;16.80;;;6.47;;
77722;SDS011;66890;42.656;23.394;2023-02-10T05:15:29;12.93;;;5.97;;
77722;SDS011;66890;42.656;23.394;2023-02-10T05:18:00;15.25;;;5.75;;
77722;SDS011;66890;42.656;23.394;2023-02-10T05:20:32;16.65;;;7.13;;
77722;SDS011;66890;42.656;23.394;2023-02-10T05:23:03;11.38;;;6.57;;
77722;SDS011;66890;42.656;23.394;2023-02-10T05:25:35;14.40;;;7.38;;
77722;SDS011;66890;42.656;23.394;2023-02-10T05:28:05;9.23;;;5.47;;
77722;SDS011;66890;42.656;23.394;2023-02-10T05:30:36;9.73;;;4.90;;
77722;SDS011;66890;42.656;23.394;2023-02-10T05:33:06;5.03;;;3.78;;
77722;SDS011;66890;42.656;23.394;2023-02-10T05:35:38;20.55;;;8.25;;
77722;SDS011;66890;42.656;23.394;2023-02-10T05:38:09;13.55;;;6.50;;
77722;SDS011;66890;42.656;23.394;2023-02-10T05:40:40;11.57;;;6.50;;
77722;SDS011;66890;42.656;23.394;2023-02-10T05:43:10;16.05;;;7.03;;
77722;SDS011;66890;42.656;23.394;2023-02-10T05:45:41;12.60;;;6.47;;
77722;SDS011;66890;42.656;23.394;2023-02-10T05:48:11;14.27;;;7.90;;
77722;SDS011;66890;42.656;23.394;2023-02-10T05:50:43;10.82;;;5.93;;
77722;SDS011;66890;42.656;23.394;2023-02-10T05:53:14;15.15;;;6.28;;
77722;SDS011;66890;42.656;23.394;2023-02-10T05:55:45;24.33;;;8.88;;
77722;SDS011;66890;42.656;23.394;2023-02-10T05:58:15;13.05;;;6.82;;
77722;SDS011;66890;42.656;23.394;2023-02-10T06:00:46;15.20;;;7.32;;
77722;SDS011;66890;42.656;23.394;2023-02-10T06:03:16;13.98;;;7.07;;
77722;SDS011;66890;42.656;23.394;2023-02-10T06:05:48;14.30;;;6.13;;
77722;SDS011;66890;42.656;23.394;2023-02-10T06:08:19;14.65;;;6.22;;
77722;SDS011;66890;42.656;23.394;2023-02-10T06:10:49;14.18;;;7.40;;
77722;SDS011;66890;42.656;23.394;2023-02-10T06:13:20;12.48;;;6.07;;
77722;SDS011;66890;42.656;23.394;2023-02-10T06:15:51;14.05;;;6.95;;
77722;SDS011;66890;42.656;23.394;2023-02-10T06:18:21;15.02;;;8.50;;
77722;SDS011;66890;42.656;23.394;2023-02-10T06:20:53;17.38;;;6.40;;
77722;SDS011;66890;42.656;23.394;2023-02-10T06:23:24;16.65;;;7.18;;
77722;SDS011;66890;42.656;23.394;2023-02-10T06:25:55;13.75;;;7.03;;
77722;SDS011;66890;42.656;23.394;2023-02-10T06:28:26;16.90;;;7.57;;
77722;SDS011;66890;42.656;23.394;2023-02-10T06:30:57;12.55;;;6.70;;
77722;SDS011;66890;42.656;23.394;2023-02-10T06:33:28;15.88;;;7.07;;
77722;SDS011;66890;42.656;23.394;2023-02-10T06:36:00;16.90;;;7.95;;
77722;SDS011;66890;42.656;23.394;2023-02-10T06:38:31;15.98;;;6.57;;
77722;SDS011;66890;42.656;23.394;2023-02-10T06:41:02;15.65;;;7.47;;
77722;SDS011;66890;42.656;23.394;2023-02-10T06:43:33;13.05;;;7.13;;
77722;SDS011;66890;42.656;23.394;2023-02-10T06:46:04;16.02;;;6.88;;
77722;SDS011;66890;42.656;23.394;2023-02-10T06:48:34;14.55;;;7.20;;
77722;SDS011;66890;42.656;23.394;2023-02-10T06:51:06;26.20;;;8.32;;
77722;SDS011;66890;42.656;23.394;2023-02-10T06:53:37;17.83;;;8.52;;
77722;SDS011;66890;42.656;23.394;2023-02-10T06:56:08;15.93;;;8.93;;
77722;SDS011;66890;42.656;23.394;2023-02-10T06:58:38;15.52;;;8.93;;
77722;SDS011;66890;42.656;23.394;2023-02-10T07:01:09;18.42;;;9.60;;
77722;SDS011;66890;42.656;23.394;2023-02-10T07:03:42;18.20;;;8.85;;
77722;SDS011;66890;42.656;23.394;2023-02-10T07:06:14;21.40;;;9.23;;
77722;SDS011;66890;42.656;23.394;2023-02-10T07:08:45;16.80;;;8.52;;
77722;SDS011;66890;42.656;23.394;2023-02-10T07:11:15;21.35;;;9.25;;
77722;SDS011;66890;42.656;23.394;2023-02-10T07:13:46;20.90;;;11.40;;
77722;SDS011;66890;42.656;23.394;2023-02-10T07:16:16;24.10;;;11.13;;
77722;SDS011;66890;42.656;23.394;2023-02-10T07:18:47;26.73;;;10.43;;
77722;SDS011;66890;42.656;23.394;2023-02-10T07:21:19;22.55;;;11.68;;
77722;SDS011;66890;42.656;23.394;2023-02-10T07:23:50;18.15;;;9.23;;
77722;SDS011;66890;42.656;23.394;2023-02-10T07:26:20;24.23;;;10.75;;
77722;SDS011;66890;42.656;23.394;2023-02-10T07:28:51;20.70;;;10.07;;
77722;SDS011;66890;42.656;23.394;2023-02-10T07:31:21;24.80;;;11.60;;
77722;SDS011;66890;42.656;23.394;2023-02-10T07:33:52;19.50;;;11.55;;
77722;SDS011;66890;42.656;23.394;2023-02-10T07:36:24;23.20;;;12.32;;
77722;SDS011;66890;42.656;23.394;2023-02-10T07:38:55;24.42;;;12.07;;
77722;SDS011;66890;42.656;23.394;2023-02-10T07:41:25;19.90;;;11.70;;
77722;SDS011;66890;42.656;23.394;2023-02-10T07:43:56;20.08;;;9.98;;
77722;SDS011;66890;42.656;23.394;2023-02-10T07:46:27;21.15;;;11.00;;
77722;SDS011;66890;42.656;23.394;2023-02-10T07:48:57;25.80;;;13.32;;
77722;SDS011;66890;42.656;23.394;2023-02-10T07:51:29;27.05;;;13.65;;
77722;SDS011;66890;42.656;23.394;2023-02-10T07:54:00;26.60;;;13.80;;
77722;SDS011;66890;42.656;23.394;2023-02-10T07:56:30;25.80;;;13.38;;
77722;SDS011;66890;42.656;23.394;2023-02-10T07:59:01;29.13;;;14.15;;
77722;SDS011;66890;42.656;23.394;2023-02-10T08:01:32;21.10;;;13.38;;
77722;SDS011;66890;42.656;23.394;2023-02-10T08:04:02;26.77;;;14.35;;
77722;SDS011;66890;42.656;23.394;2023-02-10T08:06:34;25.58;;;13.88;;
77722;SDS011;66890;42.656;23.394;2023-02-10T08:09:05;26.08;;;14.25;;
77722;SDS011;66890;42.656;23.394;2023-02-10T08:11:36;26.27;;;14.30;;
77722;SDS011;66890;42.656;23.394;2023-02-10T08:14:06;26.05;;;15.13;;
77722;SDS011;66890;42.656;23.394;2023-02-10T08:16:37;32.80;;;17.00;;
77722;SDS011;66890;42.656;23.394;2023-02-10T08:19:07;28.73;;;15.25;;
77722;SDS011;66890;42.656;23.394;2023-02-10T08:21:39;23.98;;;15.32;;
77722;SDS011;66890;42.656;23.394;2023-02-10T08:24:10;23.60;;;13.85;;
77722;SDS011;66890;42.656;23.394;2023-02-10T08:26:41;23.98;;;14.65;;
77722;SDS011;66890;42.656;23.394;2023-02-10T08:29:11;24.67;;;13.57;;
77722;SDS011;66890;42.656;23.394;2023-02-10T08:31:42;24.52;;;14.55;;
77722;SDS011;66890;42.656;23.394;2023-02-10T08:34:14;31.90;;;14.80;;
77722;SDS011;66890;42.656;23.394;2023-02-10T08:36:46;24.23;;;13.85;;
77722;SDS011;66890;42.656;23.394;2023-02-10T08:39:17;25.55;;;14.35;;
77722;SDS011;66890;42.656;23.394;2023-02-10T08:41:48;19.35;;;12.38;;
77722;SDS011;66890;42.656;23.394;2023-02-10T08:44:19;20.45;;;12.88;;
77722;SDS011;66890;42.656;23.394;2023-02-10T08:46:49;24.75;;;13.77;;
77722;SDS011;66890;42.656;23.394;2023-02-10T08:49:20;22.80;;;12.57;;
77722;SDS011;66890;42.656;23.394;2023-02-10T08:51:52;22.30;;;14.25;;
77722;SDS011;66890;42.656;23.394;2023-02-10T08:54:23;20.27;;;12.90;;
77722;SDS011;66890;42.656;23.394;2023-02-10T08:56:54;23.33;;;12.63;;
77722;SDS011;66890;42.656;23.394;2023-02-10T08:59:25;21.35;;;13.07;;
77722;SDS011;66890;42.656;23.394;2023-02-10T09:01:56;22.98;;;13.27;;
77722;SDS011;66890;42.656;23.394;2023-02-10T09:04:26;25.05;;;13.38;;
77722;SDS011;66890;42.656;23.394;2023-02-10T09:06:59;19.25;;;11.80;;
77722;SDS011;66890;42.656;23.394;2023-02-10T09:09:29;24.75;;;13.88;;
77722;SDS011;66890;42.656;23.394;2023-02-10T09:12:00;29.05;;;14.13;;
77722;SDS011;66890;42.656;23.394;2023-02-10T09:14:30;20.45;;;11.50;;
77722;SDS011;66890;42.656;23.394;2023-02-10T09:17:01;20.02;;;13.10;;
77722;SDS011;66890;42.656;23.394;2023-02-10T09:19:32;21.23;;;13.30;;
77722;SDS011;66890;42.656;23.394;2023-02-10T09:22:04;25.17;;;13.80;;
77722;SDS011;66890;42.656;23.394;2023-02-10T09:24:35;19.63;;;11.93;;
77722;SDS011;66890;42.656;23.394;2023-02-10T09:27:06;21.02;;;12.75;;
77722;SDS011;66890;42.656;23.394;2023-02-10T09:29:37;19.92;;;13.45;;
77722;SDS011;66890;42.656;23.394;2023-02-10T09:32:07;21.55;;;12.77;;
77722;SDS011;66890;42.656;23.394;2023-02-10T09:34:39;24.58;;;14.60;;
77722;SDS011;66890;42.656;23.394;2023-02-10T09:37:11;22.52;;;13.75;;
77722;SDS011;66890;42.656;23.394;2023-02-10T09:39:41;18.35;;;11.90;;
77722;SDS011;66890;42.656;23.394;2023-02-10T09:42:14;19.70;;;11.68;;
77722;SDS011;66890;42.656;23.394;2023-02-10T09:44:55;20.30;;;11.77;;
77722;SDS011;66890;42.656;23.394;2023-02-10T09:47:34;25.70;;;14.20;;
77722;SDS011;66890;42.656;23.394;2023-02-10T09:50:24;26.20;;;15.02;;
77722;SDS011;66890;42.656;23.394;2023-02-10T09:53:07;26.08;;;15.43;;
77722;SDS011;66890;42.656;23.394;2023-02-10T09:55:43;34.05;;;17.25;;
77722;SDS011;66890;42.656;23.394;2023-02-10T09:58:21;37.13;;;17.38;;
77722;SDS011;66890;42.656;23.394;2023-02-10T10:01:00;29.35;;;16.98;;
77722;SDS011;66890;42.656;23.394;2023-02-10T10:03:36;29.05;;;15.90;;
77722;SDS011;66890;42.656;23.394;2023-02-10T10:06:16;26.85;;;14.70;;
77722;SDS011;66890;42.656;23.394;2023-02-10T10:08:59;29.17;;;16.35;;
77722;SDS011;66890;42.656;23.394;2023-02-10T10:11:36;28.70;;;16.38;;
77722;SDS011;66890;42.656;23.394;2023-02-10T10:14:14;30.60;;;15.88;;
77722;SDS011;66890;42.656;23.394;2023-02-10T10:17:00;24.13;;;14.95;;
77722;SDS011;66890;42.656;23.394;2023-02-10T10:19:50;30.35;;;16.52;;
77722;SDS011;66890;42.656;23.394;2023-02-10T10:22:34;30.42;;;16.55;;
77722;SDS011;66890;42.656;23.394;2023-02-10T10:25:28;29.50;;;16.17;;
77722;SDS011;66890;42.656;23.394;2023-02-10T10:28:18;29.75;;;16.38;;
77722;SDS011;66890;42.656;23.394;2023-02-10T10:30:57;27.23;;;14.95;;
77722;SDS011;66890;42.656;23.394;2023-02-10T10:33:34;26.88;;;14.10;;
77722;SDS011;66890;42.656;23.394;2023-02-10T10:36:11;27.65;;;14.50;;
77722;SDS011;66890;42.656;23.394;2023-02-10T10:38:46;31.42;;;16.10;;
77722;SDS011;66890;42.656;23.394;2023-02-10T10:41:22;27.67;;;15.10;;
77722;SDS011;66890;42.656;23.394;2023-02-10T10:43:55;32.40;;;13.60;;
77722;SDS011;66890;42.656;23.394;2023-02-10T10:46:27;27.00;;;13.27;;
77722;SDS011;66890;42.656;23.394;2023-02-10T10:49:00;24.30;;;11.98;;
77722;SDS011;66890;42.656;23.394;2023-02-10T10:51:31;20.67;;;10.82;;
77722;SDS011;66890;42.656;23.394;2023-02-10T10:54:02;31.55;;;11.68;;
77722;SDS011;66890;42.656;23.394;2023-02-10T10:56:37;23.55;;;11.32;;
77722;SDS011;66890;42.656;23.394;2023-02-10T10:59:13;25.20;;;12.63;;
77722;SDS011;66890;42.656;23.394;2023-02-10T11:01:46;28.00;;;12.15;;
77722;SDS011;66890;42.656;23.394;2023-02-10T11:04:18;22.00;;;11.23;;
77722;SDS011;66890;42.656;23.394;2023-02-10T11:06:51;19.20;;;11.10;;
77722;SDS011;66890;42.656;23.394;2023-02-10T11:09:26;21.38;;;12.30;;
77722;SDS011;66890;42.656;23.394;2023-02-10T11:12:02;23.58;;;11.85;;
77722;SDS011;66890;42.656;23.394;2023-02-10T11:14:36;28.60;;;11.45;;
77722;SDS011;66890;42.656;23.394;2023-02-10T11:17:17;21.17;;;11.80;;
77722;SDS011;66890;42.656;23.394;2023-02-10T11:19:54;21.80;;;11.35;;
77722;SDS011;66890;42.656;23.394;2023-02-10T11:22:27;30.20;;;12.35;;
77722;SDS011;66890;42.656;23.394;2023-02-10T11:24:58;22.98;;;10.48;;
77722;SDS011;66890;42.656;23.394;2023-02-10T11:27:32;25.35;;;11.50;;
77722;SDS011;66890;42.656;23.394;2023-02-10T11:30:03;23.13;;;10.23;;
77722;SDS011;66890;42.656;23.394;2023-02-10T11:32:34;18.20;;;10.48;;
77722;SDS011;66890;42.656;23.394;2023-02-10T11:35:06;20.30;;;10.05;;
77722;SDS011;66890;42.656;23.394;2023-02-10T11:37:49;23.40;;;11.60;;
77722;SDS011;66890;42.656;23.394;2023-02-10T11:40:24;23.17;;;11.40;;
77722;SDS011;66890;42.656;23.394;2023-02-10T11:45:30;25.58;;;12.90;;
77722;SDS011;66890;42.656;23.394;2023-02-10T11:48:02;26.08;;;11.48;;
77722;SDS011;66890;42.656;23.394;2023-02-10T11:50:34;23.17;;;11.15;;
77722;SDS011;66890;42.656;23.394;2023-02-10T11:53:07;29.40;;;13.55;;
77722;SDS011;66890;42.656;23.394;2023-02-10T11:55:45;22.15;;;10.75;;
77722;SDS011;66890;42.656;23.394;2023-02-10T11:58:33;31.52;;;13.10;;
77722;SDS011;66890;42.656;23.394;2023-02-10T12:01:23;21.27;;;12.93;;
77722;SDS011;66890;42.656;23.394;2023-02-10T12:04:05;22.58;;;12.77;;
77722;SDS011;66890;42.656;23.394;2023-02-10T12:06:52;21.13;;;11.82;;
77722;SDS011;66890;42.656;23.394;2023-02-10T12:09:31;20.65;;;9.80;;
77722;SDS011;66890;42.656;23.394;2023-02-10T12:12:08;21.42;;;10.23;;
77722;SDS011;66890;42.656;23.394;2023-02-10T12:14:52;21.17;;;10.77;;
77722;SDS011;66890;42.656;23.394;2023-02-10T12:17:31;21.50;;;11.75;;
77722;SDS011;66890;42.656;23.394;2023-02-10T12:20:18;26.80;;;12.65;;
77722;SDS011;66890;42.656;23.394;2023-02-10T12:23:07;23.98;;;11.57;;
77722;SDS011;66890;42.656;23.394;2023-02-10T12:25:47;26.85;;;11.70;;
77722;SDS011;66890;42.656;23.394;2023-02-10T12:28:27;23.23;;;10.52;;
77722;SDS011;66890;42.656;23.394;2023-02-10T12:31:13;21.73;;;10.98;;
77722;SDS011;66890;42.656;23.394;2023-02-10T12:34:05;19.17;;;9.85;;
77722;SDS011;66890;42.656;23.394;2023-02-10T12:36:49;18.30;;;10.00;;
77722;SDS011;66890;42.656;23.394;2023-02-10T12:39:32;24.45;;;10.48;;
77722;SDS011;66890;42.656;23.394;2023-02-10T12:42:13;18.38;;;9.68;;
77722;SDS011;66890;42.656;23.394;2023-02-10T12:45:00;22.10;;;9.90;;
77722;SDS011;66890;42.656;23.394;2023-02-10T12:47:41;23.05;;;11.05;;
77722;SDS011;66890;42.656;23.394;2023-02-10T12:53:33;19.02;;;9.38;;
77722;SDS011;66890;42.656;23.394;2023-02-10T12:56:08;21.58;;;11.57;;
77722;SDS011;66890;42.656;23.394;2023-02-10T12:58:45;21.70;;;10.68;;
77722;SDS011;66890;42.656;23.394;2023-02-10T13:01:21;20.60;;;9.75;;
77722;SDS011;66890;42.656;23.394;2023-02-10T13:03:59;16.42;;;9.20;;
77722;SDS011;66890;42.656;23.394;2023-02-10T13:06:39;19.33;;;9.80;;
77722;SDS011;66890;42.656;23.394;2023-02-10T13:09:14;15.55;;;7.90;;
77722;SDS011;66890;42.656;23.394;2023-02-10T13:12:02;16.58;;;7.47;;
77722;SDS011;66890;42.656;23.394;2023-02-10T13:14:40;19.65;;;9.18;;
77722;SDS011;66890;42.656;23.394;2023-02-10T13:17:12;18.40;;;8.88;;
77722;SDS011;66890;42.656;23.394;2023-02-10T13:19:47;14.90;;;8.95;;
77722;SDS011;66890;42.656;23.394;2023-02-10T13:22:24;17.67;;;8.90;;
77722;SDS011;66890;42.656;23.394;2023-02-10T13:25:07;16.50;;;8.85;;
77722;SDS011;66890;42.656;23.394;2023-02-10T13:27:46;17.92;;;9.65;;
77722;SDS011;66890;42.656;23.394;2023-02-10T13:30:31;19.35;;;11.00;;
77722;SDS011;66890;42.656;23.394;2023-02-10T13:33:20;15.25;;;8.80;;
77722;SDS011;66890;42.656;23.394;2023-02-10T13:35:58;19.40;;;10.82;;
77722;SDS011;66890;42.656;23.394;2023-02-10T13:38:30;23.30;;;10.95;;
77722;SDS011;66890;42.656;23.394;2023-02-10T13:41:02;26.17;;;11.10;;
77722;SDS011;66890;42.656;23.394;2023-02-10T13:43:33;20.75;;;10.40;;
77722;SDS011;66890;42.656;23.394;2023-02-10T13:46:05;20.38;;;10.95;;
77722;SDS011;66890;42.656;23.394;2023-02-10T13:48:35;19.75;;;10.13;;
77722;SDS011;66890;42.656;23.394;2023-02-10T13:51:08;21.35;;;11.00;;
77722;SDS011;66890;42.656;23.394;2023-02-10T13:53:40;23.98;;;11.35;;
77722;SDS011;66890;42.656;23.394;2023-02-10T13:56:14;20.10;;;10.20;;
77722;SDS011;66890;42.656;23.394;2023-02-10T13:58:55;18.40;;;10.23;;
77722;SDS011;66890;42.656;23.394;2023-02-10T14:01:36;23.02;;;10.20;;
77722;SDS011;66890;42.656;23.394;2023-02-10T14:06:59;20.90;;;11.10;;
77722;SDS011;66890;42.656;23.394;2023-02-10T14:09:34;22.42;;;10.55;;
77722;SDS011;66890;42.656;23.394;2023-02-10T14:12:19;23.73;;;11.63;;
77722;SDS011;66890;42.656;23.394;2023-02-10T14:14:54;22.75;;;11.13;;
77722;SDS011;66890;42.656;23.394;2023-02-10T14:17:25;22.75;;;10.70;;
77722;SDS011;66890;42.656;23.394;2023-02-10T14:19:57;23.00;;;12.05;;
77722;SDS011;66890;42.656;23.394;2023-02-10T14:22:31;25.38;;;12.48;;
77722;SDS011;66890;42.656;23.394;2023-02-10T14:25:14;25.75;;;11.25;;
77722;SDS011;66890;42.656;23.394;2023-02-10T14:27:47;22.48;;;11.00;;
77722;SDS011;66890;42.656;23.394;2023-02-10T14:30:20;20.65;;;11.27;;
77722;SDS011;66890;42.656;23.394;2023-02-10T14:32:52;24.33;;;11.30;;
77722;SDS011;66890;42.656;23.394;2023-02-10T14:35:25;19.60;;;11.40;;
77722;SDS011;66890;42.656;23.394;2023-02-10T14:37:58;24.70;;;11.77;;
77722;SDS011;66890;42.656;23.394;2023-02-10T14:40:29;21.58;;;10.90;;
77722;SDS011;66890;42.656;23.394;2023-02-10T14:43:02;25.05;;;10.88;;
77722;SDS011;66890;42.656;23.394;2023-02-10T14:45:34;22.65;;;11.25;;
77722;SDS011;66890;42.656;23.394;2023-02-10T14:48:04;24.40;;;11.23;;
77722;SDS011;66890;42.656;23.394;2023-02-10T14:50:36;22.20;;;12.27;;
77722;SDS011;66890;42.656;23.394;2023-02-10T14:53:16;23.95;;;12.73;;
77722;SDS011;66890;42.656;23.394;2023-02-10T14:55:51;20.90;;;12.88;;
77722;SDS011;66890;42.656;23.394;2023-02-10T14:58:24;29.52;;;11.80;;
77722;SDS011;66890;42.656;23.394;2023-02-10T15:01:02;27.15;;;12.10;;
77722;SDS011;66890;42.656;23.394;2023-02-10T15:03:45;28.70;;;13.20;;
77722;SDS011;66890;42.656;23.394;2023-02-10T15:06:17;26.40;;;13.27;;
77722;SDS011;66890;42.656;23.394;2023-02-10T15:08:51;25.00;;;12.45;;